createdAt,value
2018-06-07T00:02:09.301Z,0.87
2018-06-07T00:04:36.870Z,0.90
2018-06-07T00:07:04.501Z,0.80
2018-06-07T00:09:32.065Z,0.90
2018-06-07T00:12:06.568Z,0.60
2018-06-07T00:14:34.145Z,0.80
2018-06-07T00:17:01.755Z,0.90
2018-06-07T00:19:29.334Z,0.93
2018-06-07T00:21:56.881Z,1.00
2018-06-07T00:24:24.444Z,0.80
2018-06-07T00:26:52.014Z,1.00
2018-06-07T00:29:19.661Z,0.83
2018-06-07T00:31:47.250Z,1.20
2018-06-07T00:34:14.821Z,1.30
2018-06-07T00:36:42.386Z,0.90
2018-06-07T00:39:11.065Z,0.90
2018-06-07T00:41:38.659Z,0.90
2018-06-07T00:44:06.311Z,1.20
2018-06-07T00:46:33.925Z,1.00
2018-06-07T00:49:01.488Z,0.83
2018-06-07T00:51:29.072Z,0.97
2018-06-07T00:53:56.629Z,1.10
2018-06-07T00:56:41.805Z,1.00
2018-06-07T00:59:09.357Z,1.20
2018-06-07T01:01:36.932Z,1.10
2018-06-07T01:04:04.568Z,1.10
2018-06-07T01:06:32.180Z,1.03
2018-06-07T01:08:59.845Z,1.07
2018-06-07T01:11:27.650Z,0.90
2018-06-07T01:13:55.182Z,0.90
2018-06-07T01:16:22.793Z,1.00
2018-06-07T01:18:50.401Z,1.00
2018-06-07T01:21:18.017Z,1.10
2018-06-07T01:23:45.761Z,1.10
2018-06-07T01:26:13.380Z,0.90
2018-06-07T01:28:41.021Z,1.07
2018-06-07T01:31:14.331Z,1.30
2018-06-07T01:33:47.807Z,1.10
2018-06-07T01:36:16.209Z,1.00
2018-06-07T01:38:58.590Z,1.20
2018-06-07T01:41:26.213Z,1.27
2018-06-07T01:43:53.779Z,1.20
2018-06-07T01:46:21.325Z,1.20
2018-06-07T01:48:49.064Z,1.00
2018-06-07T01:51:16.705Z,1.50
2018-06-07T01:53:44.254Z,1.00
2018-06-07T01:56:11.816Z,1.37
2018-06-07T01:58:39.391Z,1.00
2018-06-07T02:01:07.026Z,1.10
2018-06-07T02:03:34.576Z,1.30
2018-06-07T02:06:02.182Z,1.10
2018-06-07T02:08:29.728Z,1.40
2018-06-07T02:10:57.268Z,1.10
2018-06-07T02:13:25.155Z,1.00
2018-06-07T02:15:52.740Z,1.23
2018-06-07T02:18:20.358Z,1.10
2018-06-07T02:20:47.930Z,1.20
2018-06-07T02:23:15.546Z,1.10
2018-06-07T02:25:43.111Z,1.20
2018-06-07T02:28:10.680Z,1.30
2018-06-07T02:30:38.293Z,1.10
2018-06-07T02:33:05.856Z,0.97
2018-06-07T02:35:33.432Z,1.20
2018-06-07T02:38:01.059Z,1.20
2018-06-07T02:40:28.711Z,1.17
2018-06-07T02:42:56.272Z,1.07
2018-06-07T02:45:23.976Z,1.13
2018-06-07T02:47:51.618Z,1.00
2018-06-07T02:50:19.200Z,1.07
2018-06-07T02:52:46.772Z,0.93
2018-06-07T02:55:14.428Z,0.80
2018-06-07T02:57:42.016Z,1.00
2018-06-07T03:00:09.648Z,1.03
2018-06-07T03:02:37.191Z,1.00
2018-06-07T03:05:04.957Z,1.00
2018-06-07T03:07:32.710Z,1.00
2018-06-07T03:10:00.268Z,1.13
2018-06-07T03:12:27.979Z,1.33
2018-06-07T03:14:55.544Z,1.10
2018-06-07T03:17:23.107Z,1.13
2018-06-07T03:19:50.695Z,1.17
2018-06-07T03:22:18.359Z,1.23
2018-06-07T03:24:45.943Z,1.00
2018-06-07T03:27:13.528Z,1.33
2018-06-07T03:29:41.137Z,1.20
2018-06-07T03:32:08.744Z,1.00
2018-06-07T03:34:36.296Z,1.30
2018-06-07T03:37:03.861Z,1.10
2018-06-07T03:39:31.428Z,1.27
2018-06-07T03:41:59.180Z,1.30
2018-06-07T03:44:26.716Z,1.30
2018-06-07T03:46:54.270Z,1.20
2018-06-07T03:49:21.817Z,1.20
2018-06-07T03:51:49.380Z,0.93
2018-06-07T03:54:17.082Z,1.07
2018-06-07T03:56:44.660Z,0.90
2018-06-07T03:59:12.283Z,1.03
2018-06-07T04:01:39.860Z,1.00
2018-06-07T04:04:07.489Z,1.30
2018-06-07T04:06:35.046Z,1.00
2018-06-07T04:09:04.264Z,1.00
2018-06-07T04:11:32.268Z,0.93
2018-06-07T04:13:59.827Z,1.00
2018-06-07T04:16:27.543Z,1.10
2018-06-07T04:18:55.149Z,0.90
2018-06-07T04:21:22.804Z,1.10
2018-06-07T04:23:50.477Z,1.00
2018-06-07T04:26:18.128Z,1.10
2018-06-07T04:28:45.696Z,1.10
2018-06-07T04:31:13.300Z,1.07
2018-06-07T04:33:40.886Z,1.20
2018-06-07T04:36:08.503Z,1.30
2018-06-07T04:38:36.065Z,1.00
2018-06-07T04:41:03.665Z,1.30
2018-06-07T04:43:31.208Z,1.30
2018-06-07T04:45:58.772Z,1.10
2018-06-07T04:48:26.424Z,1.00
2018-06-07T04:50:54.808Z,1.10
2018-06-07T04:53:22.412Z,1.20
2018-06-07T04:55:49.983Z,1.13
2018-06-07T04:58:17.551Z,1.23
2018-06-07T05:00:45.092Z,1.03
2018-06-07T05:03:12.697Z,0.97
2018-06-07T05:05:40.245Z,1.13
2018-06-07T05:08:08.911Z,1.70
2018-06-07T05:10:37.544Z,1.00
2018-06-07T05:13:05.378Z,1.10
2018-06-07T05:15:32.942Z,1.50
2018-06-07T05:18:00.508Z,1.20
2018-06-07T05:20:28.164Z,1.10
2018-06-07T05:22:55.765Z,1.20
2018-06-07T05:25:23.399Z,1.10
2018-06-07T05:27:51.003Z,1.00
2018-06-07T05:30:18.564Z,1.20
2018-06-07T05:32:46.141Z,1.57
2018-06-07T05:35:13.736Z,1.20
2018-06-07T05:37:41.398Z,1.20
2018-06-07T05:40:09.049Z,1.17
2018-06-07T05:42:36.660Z,1.00
2018-06-07T05:45:04.558Z,1.00
2018-06-07T05:47:32.151Z,1.00
2018-06-07T05:50:00.140Z,1.00
2018-06-07T05:52:27.769Z,1.07
2018-06-07T05:54:55.340Z,1.10
2018-06-07T05:57:22.999Z,1.00
2018-06-07T05:59:50.575Z,1.20
2018-06-07T06:02:18.165Z,1.37
2018-06-07T06:04:45.729Z,1.23
2018-06-07T06:07:13.409Z,0.93
2018-06-07T06:09:40.988Z,1.27
2018-06-07T06:12:08.634Z,1.20
2018-06-07T06:14:36.268Z,1.23
2018-06-07T06:17:03.938Z,1.07
2018-06-07T06:19:31.521Z,1.20
2018-06-07T06:21:59.412Z,1.10
2018-06-07T06:24:26.998Z,1.13
2018-06-07T06:26:54.543Z,1.33
2018-06-07T06:29:22.152Z,1.10
2018-06-07T06:31:49.755Z,1.10
2018-06-07T06:34:17.408Z,1.20
2018-06-07T06:36:44.995Z,1.10
2018-06-07T06:39:12.621Z,1.30
2018-06-07T06:41:40.203Z,1.20
2018-06-07T06:44:07.780Z,1.10
2018-06-07T06:46:35.355Z,1.13
2018-06-07T06:49:03.102Z,1.30
2018-06-07T06:51:30.735Z,1.07
2018-06-07T06:53:58.288Z,1.10
2018-06-07T06:56:25.905Z,1.10
2018-06-07T06:58:53.506Z,1.20
2018-06-07T07:01:21.836Z,1.23
2018-06-07T07:03:49.462Z,0.90
2018-06-07T07:06:17.011Z,1.20
2018-06-07T07:08:44.656Z,1.20
2018-06-07T07:11:12.224Z,1.53
2018-06-07T07:13:39.848Z,1.37
2018-06-07T07:16:07.400Z,0.90
2018-06-07T07:18:34.992Z,1.23
2018-06-07T07:21:02.569Z,1.10
2018-06-07T07:23:30.241Z,0.77
2018-06-07T07:25:57.810Z,1.17
2018-06-07T07:28:25.365Z,1.13
2018-06-07T07:30:52.946Z,1.07
2018-06-07T07:33:20.586Z,1.03
2018-06-07T07:35:48.183Z,1.23
2018-06-07T07:38:15.811Z,1.40
2018-06-07T07:40:43.476Z,1.30
2018-06-07T07:43:11.056Z,1.30
2018-06-07T07:45:38.629Z,1.33
2018-06-07T07:48:06.218Z,1.20
2018-06-07T07:50:33.891Z,1.10
2018-06-07T07:53:01.540Z,1.30
2018-06-07T07:55:29.121Z,1.20
2018-06-07T07:57:56.688Z,1.40
2018-06-07T08:00:24.283Z,1.03
2018-06-07T08:02:52.257Z,1.07
2018-06-07T08:05:19.908Z,1.10
2018-06-07T08:07:47.520Z,1.17
2018-06-07T08:10:15.103Z,1.27
2018-06-07T08:12:42.695Z,1.20
2018-06-07T08:15:10.361Z,1.43
2018-06-07T08:17:37.939Z,1.40
2018-06-07T08:20:05.512Z,1.40
2018-06-07T08:22:33.110Z,1.43
2018-06-07T08:25:00.746Z,1.40
2018-06-07T08:27:28.289Z,1.33
2018-06-07T08:29:55.962Z,1.73
2018-06-07T08:32:23.552Z,1.47
2018-06-07T08:34:51.141Z,1.60
2018-06-07T08:37:18.733Z,1.77
2018-06-07T08:39:46.304Z,1.40
2018-06-07T08:42:13.835Z,1.53
2018-06-07T08:44:41.442Z,1.70
2018-06-07T08:47:09.097Z,1.60
2018-06-07T08:49:36.671Z,1.47
2018-06-07T08:52:04.229Z,1.60
2018-06-07T08:54:31.863Z,1.67
2018-06-07T08:56:59.445Z,1.60
2018-06-07T08:59:27.071Z,1.63
2018-06-07T09:01:54.649Z,1.63
2018-06-07T09:04:22.270Z,1.80
2018-06-07T09:06:49.786Z,1.90
2018-06-07T09:09:17.361Z,2.00
2018-06-07T09:11:44.946Z,2.07
2018-06-07T09:14:12.506Z,1.90
2018-06-07T09:16:40.073Z,1.60
2018-06-07T09:19:07.661Z,1.97
2018-06-07T09:21:35.240Z,1.97
2018-06-07T09:24:02.860Z,2.00
2018-06-07T09:26:30.888Z,2.30
2018-06-07T09:28:58.467Z,1.90
2018-06-07T09:31:26.066Z,2.20
2018-06-07T09:33:53.649Z,1.70
2018-06-07T09:36:21.207Z,1.93
2018-06-07T09:38:48.763Z,1.80
2018-06-07T09:41:16.526Z,1.93
2018-06-07T09:43:44.109Z,2.20
2018-06-07T09:46:11.694Z,2.20
2018-06-07T09:48:39.240Z,1.97
2018-06-07T09:51:06.789Z,2.03
2018-06-07T09:53:34.373Z,2.03
2018-06-07T09:56:01.972Z,1.90
2018-06-07T09:58:31.472Z,2.23
2018-06-07T10:00:59.056Z,1.80
2018-06-07T10:03:26.645Z,2.00
2018-06-07T10:05:54.191Z,2.10
2018-06-07T10:08:22.034Z,2.23
2018-06-07T10:10:49.634Z,1.90
2018-06-07T10:13:17.199Z,1.97
2018-06-07T10:15:44.737Z,2.27
2018-06-07T10:18:12.297Z,2.13
2018-06-07T10:20:39.909Z,2.10
2018-06-07T10:23:07.507Z,2.13
2018-06-07T10:25:35.092Z,2.00
2018-06-07T10:28:02.644Z,2.00
2018-06-07T10:30:30.257Z,2.20
2018-06-07T10:32:57.791Z,1.93
2018-06-07T10:35:25.471Z,2.20
2018-06-07T10:37:53.053Z,2.10
2018-06-07T10:40:20.632Z,1.90
2018-06-07T10:42:48.217Z,2.00
2018-06-07T10:45:15.764Z,1.93
2018-06-07T10:47:43.353Z,2.10
2018-06-07T10:50:10.975Z,2.07
2018-06-07T10:52:38.547Z,2.07
2018-06-07T10:55:06.117Z,2.10
2018-06-07T10:57:33.737Z,2.13
2018-06-07T11:00:01.335Z,2.20
2018-06-07T11:02:28.948Z,2.17
2018-06-07T11:04:56.507Z,2.27
2018-06-07T11:07:24.110Z,1.60
2018-06-07T11:09:51.720Z,2.17
2018-06-07T11:12:19.325Z,2.00
2018-06-07T11:14:46.927Z,1.80
2018-06-07T11:17:14.494Z,2.50
2018-06-07T11:19:42.044Z,1.90
2018-06-07T11:22:09.624Z,2.33
2018-06-07T11:24:37.248Z,1.93
2018-06-07T11:27:04.804Z,2.20
2018-06-07T11:29:32.960Z,2.33
2018-06-07T11:32:00.507Z,2.03
2018-06-07T11:34:28.084Z,1.83
2018-06-07T11:36:55.735Z,2.03
2018-06-07T11:39:23.365Z,2.10
2018-06-07T11:41:50.916Z,2.17
2018-06-07T11:44:18.436Z,2.00
2018-06-07T11:46:46.030Z,1.87
2018-06-07T11:49:13.649Z,1.63
2018-06-07T11:51:41.180Z,2.13
2018-06-07T11:54:08.813Z,1.90
2018-06-07T11:56:36.427Z,2.07
2018-06-07T11:59:04.246Z,2.10
2018-06-07T12:01:31.900Z,2.00
2018-06-07T12:03:59.542Z,2.00
2018-06-07T12:06:27.176Z,2.40
2018-06-07T12:08:54.843Z,2.00
2018-06-07T12:11:22.390Z,1.63
2018-06-07T12:13:49.954Z,1.90
2018-06-07T12:16:17.511Z,1.93
2018-06-07T12:18:45.052Z,2.20
2018-06-07T12:21:12.632Z,2.00
2018-06-07T12:23:40.234Z,2.00
2018-06-07T12:26:07.900Z,2.07
2018-06-07T12:28:35.485Z,2.00
2018-06-07T12:31:03.784Z,1.83
2018-06-07T12:33:31.328Z,2.10
2018-06-07T12:35:58.880Z,1.90
2018-06-07T12:38:26.460Z,2.23
2018-06-07T12:40:54.016Z,1.93
2018-06-07T12:43:21.568Z,2.10
2018-06-07T12:45:49.154Z,1.83
2018-06-07T12:48:16.872Z,1.90
2018-06-07T12:50:44.444Z,2.00
2018-06-07T12:53:12.051Z,1.70
2018-06-07T12:55:39.638Z,2.03
2018-06-07T12:58:07.219Z,1.70
2018-06-07T13:00:34.832Z,1.77
2018-06-07T13:03:02.367Z,1.93
2018-06-07T13:05:29.916Z,1.90
2018-06-07T13:07:57.468Z,1.90
2018-06-07T13:10:25.102Z,1.87
2018-06-07T13:12:52.677Z,1.93
2018-06-07T13:15:20.280Z,1.77
2018-06-07T13:17:47.841Z,1.73
2018-06-07T13:20:15.560Z,1.77
2018-06-07T13:22:43.176Z,2.00
2018-06-07T13:25:10.757Z,2.00
2018-06-07T13:27:38.332Z,2.07
2018-06-07T13:30:05.977Z,1.70
2018-06-07T13:32:33.580Z,1.80
2018-06-07T13:35:01.144Z,1.60
2018-06-07T13:37:28.776Z,1.93
2018-06-07T13:39:56.318Z,1.60
2018-06-07T13:42:23.942Z,1.90
2018-06-07T13:44:51.502Z,1.67
2018-06-07T13:47:19.136Z,1.93
2018-06-07T13:49:46.679Z,2.00
2018-06-07T13:52:14.438Z,1.70
2018-06-07T13:54:42.060Z,1.60
2018-06-07T13:57:09.681Z,2.00
2018-06-07T13:59:37.334Z,1.77
2018-06-07T14:02:04.960Z,1.60
2018-06-07T14:04:32.590Z,1.67
2018-06-07T14:07:00.198Z,1.90
2018-06-07T14:09:27.908Z,1.47
2018-06-07T14:11:55.508Z,1.60
2018-06-07T14:14:23.055Z,1.83
2018-06-07T14:16:50.605Z,1.70
2018-06-07T14:19:18.281Z,1.80
2018-06-07T14:21:45.875Z,1.80
2018-06-07T14:24:13.751Z,1.50
2018-06-07T14:26:41.334Z,1.80
2018-06-07T14:29:08.872Z,1.60
2018-06-07T14:31:37.390Z,1.63
2018-06-07T14:34:05.067Z,1.70
2018-06-07T14:36:32.645Z,1.63
2018-06-07T14:39:00.304Z,2.03
2018-06-07T14:41:27.865Z,1.80
2018-06-07T14:43:55.501Z,1.63
2018-06-07T14:46:23.043Z,1.87
2018-06-07T14:48:50.595Z,1.83
2018-06-07T14:51:18.242Z,1.60
2018-06-07T14:53:46.761Z,1.60
2018-06-07T14:56:14.402Z,1.53
2018-06-07T14:58:41.983Z,2.00
2018-06-07T15:01:09.589Z,1.93
2018-06-07T15:03:37.136Z,1.73
2018-06-07T15:06:04.807Z,1.73
2018-06-07T15:08:32.404Z,1.87
2018-06-07T15:10:59.962Z,1.80
2018-06-07T15:13:27.532Z,1.73
2018-06-07T15:15:55.090Z,2.20
2018-06-07T15:18:22.728Z,1.73
2018-06-07T15:20:50.700Z,1.70
2018-06-07T15:23:18.336Z,1.97
2018-06-07T15:25:45.917Z,1.57
2018-06-07T15:28:13.536Z,1.60
2018-06-07T15:30:41.203Z,1.80
2018-06-07T15:33:08.761Z,2.00
2018-06-07T15:35:36.329Z,1.77
2018-06-07T15:38:03.952Z,1.80
2018-06-07T15:40:31.516Z,1.90
2018-06-07T15:42:59.084Z,2.03
2018-06-07T15:45:26.720Z,1.67
2018-06-07T15:47:54.300Z,1.50
2018-06-07T15:50:21.900Z,1.57
2018-06-07T15:52:49.458Z,1.63
2018-06-07T15:55:17.051Z,2.07
2018-06-07T15:57:44.627Z,1.67
2018-06-07T16:00:12.352Z,1.77
2018-06-07T16:02:39.953Z,1.60
2018-06-07T16:05:07.563Z,1.80
2018-06-07T16:07:35.392Z,2.03
2018-06-07T16:10:03.084Z,1.83
2018-06-07T16:12:30.829Z,1.97
2018-06-07T16:14:58.538Z,1.70
2018-06-07T16:17:26.129Z,1.87
2018-06-07T16:19:53.652Z,1.67
2018-06-07T16:22:21.300Z,2.10
2018-06-07T16:24:48.852Z,2.00
2018-06-07T16:27:16.448Z,1.70
2018-06-07T16:29:44.102Z,1.90
2018-06-07T16:32:11.676Z,1.77
2018-06-07T16:34:39.267Z,1.70
2018-06-07T16:37:06.871Z,1.80
2018-06-07T16:39:34.456Z,1.70
2018-06-07T16:42:02.168Z,1.70
2018-06-07T16:44:29.848Z,1.90
2018-06-07T16:46:57.530Z,1.80
2018-06-07T16:49:25.094Z,1.50
2018-06-07T16:51:52.659Z,1.53
2018-06-07T16:54:20.238Z,1.43
2018-06-07T16:56:47.868Z,1.93
2018-06-07T16:59:15.488Z,1.53
2018-06-07T17:01:43.173Z,1.40
2018-06-07T17:04:10.743Z,1.40
2018-06-07T17:06:38.328Z,1.43
2018-06-07T17:09:08.090Z,1.33
2018-06-07T17:11:35.902Z,1.50
2018-06-07T17:14:03.719Z,1.53
2018-06-07T17:16:31.305Z,1.60
2018-06-07T17:18:58.905Z,1.40
2018-06-07T17:21:26.516Z,1.30
2018-06-07T17:23:54.072Z,1.47
2018-06-07T17:26:21.656Z,1.47
2018-06-07T17:28:49.250Z,1.23
2018-06-07T17:31:16.904Z,1.57
2018-06-07T17:33:44.458Z,1.60
2018-06-07T17:36:12.204Z,1.23
2018-06-07T17:38:39.780Z,1.50
2018-06-07T17:41:07.789Z,1.40
2018-06-07T17:43:35.360Z,1.43
2018-06-07T17:46:02.916Z,1.77
2018-06-07T17:48:30.517Z,1.20
2018-06-07T17:50:58.052Z,1.63
2018-06-07T17:53:25.636Z,1.30
2018-06-07T17:55:53.338Z,1.40
2018-06-07T17:58:20.876Z,1.30
2018-06-07T18:00:48.435Z,1.40
2018-06-07T18:03:16.107Z,1.60
2018-06-07T18:05:43.777Z,1.30
2018-06-07T18:08:11.308Z,1.20
2018-06-07T18:10:38.959Z,1.30
2018-06-07T18:13:06.509Z,1.57
2018-06-07T18:15:34.097Z,1.47
2018-06-07T18:18:01.734Z,1.37
2018-06-07T18:20:29.323Z,1.70
2018-06-07T18:22:56.851Z,1.60
2018-06-07T18:25:24.407Z,1.60
2018-06-07T18:27:52.006Z,1.67
2018-06-07T18:30:19.583Z,1.43
2018-06-07T18:32:47.285Z,1.80
2018-06-07T18:35:14.919Z,1.63
2018-06-07T18:37:42.480Z,1.50
2018-06-07T18:40:10.073Z,1.33
2018-06-07T18:42:38.021Z,1.57
2018-06-07T18:45:05.693Z,1.60
2018-06-07T18:47:33.272Z,1.60
2018-06-07T18:50:00.908Z,1.53
2018-06-07T18:52:28.545Z,1.43
2018-06-07T18:54:56.200Z,1.90
2018-06-07T18:57:24.460Z,1.60
2018-06-07T18:59:52.107Z,1.47
2018-06-07T19:02:19.653Z,1.60
2018-06-07T19:04:47.306Z,1.40
2018-06-07T19:07:20.776Z,1.47
2018-06-07T19:09:54.279Z,1.77
2018-06-07T19:12:21.944Z,1.90
2018-06-07T19:14:55.712Z,1.40
2018-06-07T19:17:23.344Z,1.43
2018-06-07T19:19:56.800Z,1.70
2018-06-07T19:22:24.440Z,1.60
2018-06-07T19:24:57.801Z,1.30
2018-06-07T19:27:26.753Z,1.47
2018-06-07T19:29:54.743Z,1.50
2018-06-07T19:32:28.132Z,1.57
2018-06-07T19:35:01.495Z,1.60
2018-06-07T19:37:29.181Z,1.30
2018-06-07T19:40:02.569Z,1.67
2018-06-07T19:42:30.195Z,1.30
2018-06-07T19:44:57.772Z,1.53
2018-06-07T19:47:25.390Z,1.43
2018-06-07T19:49:52.937Z,1.60
2018-06-07T19:52:20.552Z,1.60
2018-06-07T19:54:48.656Z,1.50
2018-06-07T19:57:16.329Z,1.70
2018-06-07T19:59:44.188Z,1.70
2018-06-07T20:02:12.736Z,1.67
2018-06-07T20:04:40.441Z,1.57
2018-06-07T20:07:08.184Z,1.40
2018-06-07T20:09:35.792Z,1.67
2018-06-07T20:12:03.524Z,1.77
2018-06-07T20:14:31.297Z,1.60
2018-06-07T20:16:59.017Z,1.80
2018-06-07T20:19:26.656Z,1.50
2018-06-07T20:21:54.259Z,1.60
2018-06-07T20:24:21.962Z,1.60
2018-06-07T20:26:49.542Z,1.57
2018-06-07T20:29:33.189Z,1.50
2018-06-07T20:32:08.775Z,1.60
2018-06-07T20:34:36.362Z,1.50
2018-06-07T20:37:04.181Z,1.83
2018-06-07T20:39:31.753Z,2.20
2018-06-07T20:42:00.398Z,1.60
2018-06-07T20:44:28.024Z,1.50
2018-06-07T20:46:55.590Z,1.63
2018-06-07T20:49:23.184Z,2.10
2018-06-07T20:51:50.781Z,1.40
2018-06-07T20:54:18.503Z,1.80
2018-06-07T20:56:46.200Z,1.50
2018-06-07T20:59:13.813Z,1.60
2018-06-07T21:01:41.404Z,1.77
2018-06-07T21:04:09.085Z,2.03
2018-06-07T21:06:36.853Z,1.60
2018-06-07T21:09:07.481Z,1.67
2018-06-07T21:11:35.300Z,1.97
2018-06-07T21:14:03.626Z,1.80
2018-06-07T21:16:31.203Z,1.97
2018-06-07T21:18:58.944Z,2.10
2018-06-07T21:21:26.664Z,1.90
2018-06-07T21:23:54.236Z,2.00
2018-06-07T21:26:22.055Z,1.83
2018-06-07T21:28:49.633Z,1.90
2018-06-07T21:31:17.281Z,1.93
2018-06-07T21:33:45.131Z,2.10
2018-06-07T21:36:13.308Z,1.70
2018-06-07T21:38:41.136Z,1.90
2018-06-07T21:41:08.851Z,2.37
2018-06-07T21:43:36.476Z,1.97
2018-06-07T21:46:04.328Z,1.87
2018-06-07T21:48:31.977Z,2.17
2018-06-07T21:50:59.608Z,2.10
2018-06-07T21:53:27.142Z,2.20
2018-06-07T21:55:54.743Z,1.80
2018-06-07T21:58:22.313Z,2.10
2018-06-07T22:00:49.880Z,1.77
2018-06-07T22:03:17.496Z,2.20
2018-06-07T22:05:45.098Z,1.90
2018-06-07T22:08:12.956Z,1.80
2018-06-07T22:10:40.537Z,2.20
2018-06-07T22:13:08.195Z,2.30
2018-06-07T22:15:35.832Z,1.87
2018-06-07T22:18:03.553Z,2.00
2018-06-07T22:20:31.126Z,1.90
2018-06-07T22:22:58.776Z,1.83
2018-06-07T22:25:26.283Z,1.93
2018-06-07T22:27:53.897Z,1.93
2018-06-07T22:30:21.458Z,1.70
2018-06-07T22:32:49.023Z,2.20
2018-06-07T22:35:16.611Z,1.77
2018-06-07T22:37:44.177Z,1.87
2018-06-07T22:40:11.863Z,1.73
2018-06-07T22:42:39.414Z,1.80
2018-06-07T22:45:07.000Z,1.60
2018-06-07T22:47:34.544Z,1.83
2018-06-07T22:50:02.088Z,2.40
2018-06-07T22:52:29.746Z,2.00
2018-06-07T22:54:57.323Z,1.90
2018-06-07T22:57:24.862Z,2.00
2018-06-07T22:59:52.471Z,2.10
2018-06-07T23:02:20.069Z,1.63
2018-06-07T23:04:47.681Z,2.00
2018-06-07T23:07:15.325Z,2.00
2018-06-07T23:09:42.904Z,2.10
2018-06-07T23:12:10.488Z,2.00
2018-06-07T23:14:38.164Z,2.10
2018-06-07T23:17:05.760Z,4.40
2018-06-07T23:19:33.355Z,4.73
2018-06-07T23:22:00.915Z,3.63
2018-06-07T23:24:28.480Z,4.63
2018-06-07T23:26:56.028Z,8.13
2018-06-07T23:29:23.603Z,7.33
2018-06-07T23:31:51.290Z,5.93
2018-06-07T23:34:18.894Z,5.27
2018-06-07T23:36:46.637Z,5.20
2018-06-07T23:39:14.205Z,4.43
2018-06-07T23:41:42.523Z,6.70
2018-06-07T23:44:10.102Z,5.30
2018-06-07T23:46:37.651Z,3.50
2018-06-07T23:49:05.265Z,3.90
2018-06-07T23:51:32.864Z,3.17
2018-06-07T23:54:00.480Z,2.50
2018-06-07T23:56:28.053Z,2.53
2018-06-07T23:58:55.631Z,2.60
